createdAt,value
2022-08-02T00:00:39.793Z,100099.39
2022-08-02T00:03:08.979Z,100104.45
2022-08-02T00:05:36.863Z,100103.92
2022-08-02T00:08:04.705Z,100107.94
2022-08-02T00:10:32.300Z,100110.21
2022-08-02T00:13:00.429Z,100109.31
2022-08-02T00:15:27.989Z,100107.16
2022-08-02T00:17:55.502Z,100104.27
2022-08-02T00:20:23.018Z,100104.16
2022-08-02T00:22:50.490Z,100107.75
2022-08-02T00:25:18.099Z,100109.23
2022-08-02T00:27:45.743Z,100112.17
2022-08-02T00:30:13.438Z,100109.40
2022-08-02T00:32:40.989Z,100108.05
2022-08-02T00:35:08.934Z,100109.87
2022-08-02T00:37:40.532Z,100114.39
2022-08-02T00:40:10.076Z,100114.94
2022-08-02T00:42:40.283Z,100119.52
2022-08-02T00:45:08.788Z,100120.17
2022-08-02T00:47:36.356Z,100123.55
2022-08-02T00:50:05.090Z,100124.98
2022-08-02T00:52:32.626Z,100125.88
2022-08-02T00:55:00.123Z,100127.80
2022-08-02T00:57:27.626Z,100129.86
2022-08-02T00:59:55.085Z,100126.14
2022-08-02T01:02:22.685Z,100123.50
2022-08-02T01:04:50.418Z,100123.70
2022-08-02T01:07:18.458Z,100122.00
2022-08-02T01:09:46.892Z,100119.13
2022-08-02T01:12:14.799Z,100121.65
2022-08-02T01:14:46.211Z,100125.28
2022-08-02T01:17:34.724Z,100128.70
2022-08-02T01:20:34.235Z,100132.44
2022-08-02T01:23:39.355Z,100136.67
2022-08-02T01:26:22.804Z,100141.20
2022-08-02T01:29:01.261Z,100146.21
2022-08-02T01:31:34.747Z,100152.35
2022-08-02T01:34:06.437Z,100155.45
2022-08-02T01:36:39.032Z,100156.16
2022-08-02T01:39:11.358Z,100159.02
2022-08-02T01:41:58.806Z,100162.17
2022-08-02T01:44:30.257Z,100162.16
2022-08-02T01:47:02.089Z,100162.14
2022-08-02T01:49:33.294Z,100165.80
2022-08-02T01:52:20.567Z,100165.30
2022-08-02T01:55:03.093Z,100167.29
2022-08-02T01:57:39.207Z,100169.65
2022-08-02T02:00:11.928Z,100169.84
2022-08-02T02:02:45.235Z,100172.04
2022-08-02T02:05:20.205Z,100171.81
2022-08-02T02:07:51.397Z,100179.88
2022-08-02T02:10:26.860Z,100176.11
2022-08-02T02:12:56.771Z,100169.59
2022-08-02T02:15:26.133Z,100172.25
2022-08-02T02:18:12.971Z,100169.02
2022-08-02T02:20:42.391Z,100169.04
2022-08-02T02:23:11.643Z,100164.70
2022-08-02T02:25:46.780Z,100163.40
2022-08-02T02:28:37.263Z,100167.46
2022-08-02T02:31:13.180Z,100169.80
2022-08-02T02:33:48.688Z,100173.47
2022-08-02T02:36:19.156Z,100171.07
2022-08-02T02:38:48.570Z,100168.31
2022-08-02T02:41:18.839Z,100164.09
2022-08-02T02:43:47.280Z,100161.31
2022-08-02T02:46:17.255Z,100158.47
2022-08-02T02:48:45.521Z,100157.92
2022-08-02T02:51:14.711Z,100157.02
2022-08-02T02:54:33.644Z,100157.95
2022-08-02T02:56:32.364Z,100160.78
2022-08-02T02:59:00.617Z,100160.44
2022-08-02T03:01:56.212Z,100159.11
2022-08-02T03:04:16.841Z,100160.28
2022-08-02T03:06:44.524Z,100161.11
2022-08-02T03:09:12.376Z,100160.54
2022-08-02T03:11:41.542Z,100163.34
2022-08-02T03:14:11.903Z,100160.31
2022-08-02T03:16:48.238Z,100160.48
2022-08-02T03:19:17.486Z,100158.18
2022-08-02T03:21:46.850Z,100158.17
2022-08-02T03:24:14.814Z,100160.63
2022-08-02T03:26:55.085Z,100163.48
2022-08-02T03:29:22.648Z,100160.31
2022-08-02T03:31:50.697Z,100159.52
2022-08-02T03:34:18.421Z,100157.77
2022-08-02T03:36:50.003Z,100156.52
2022-08-02T03:39:20.043Z,100164.26
2022-08-02T03:41:49.576Z,100166.25
2022-08-02T03:44:17.704Z,100163.21
2022-08-02T03:46:45.539Z,100165.42
2022-08-02T03:49:18.389Z,100166.30
2022-08-02T03:51:47.231Z,100167.91
2022-08-02T03:54:17.655Z,100175.59
2022-08-02T03:56:46.055Z,100179.95
2022-08-02T03:59:14.810Z,100189.32
2022-08-02T04:01:42.523Z,100196.52
2022-08-02T04:04:10.028Z,100197.96
2022-08-02T04:06:39.897Z,100202.11
2022-08-02T04:09:09.783Z,100205.98
2022-08-02T04:11:37.742Z,100206.10
2022-08-02T04:14:09.422Z,100213.65
2022-08-02T04:16:48.064Z,100211.09
2022-08-02T04:19:27.940Z,100215.98
2022-08-02T04:21:57.748Z,100226.40
2022-08-02T04:24:31.874Z,100223.48
2022-08-02T04:27:01.025Z,100229.02
2022-08-02T04:29:36.542Z,100233.91
2022-08-02T04:32:05.181Z,100237.27
2022-08-02T04:34:32.782Z,100242.58
2022-08-02T04:37:00.661Z,100244.52
2022-08-02T04:39:28.209Z,100247.52
2022-08-02T04:41:57.930Z,100255.08
2022-08-02T04:44:26.561Z,100253.05
2022-08-02T04:46:55.369Z,100259.05
2022-08-02T04:49:22.930Z,100261.45
2022-08-02T04:51:50.466Z,100264.17
2022-08-02T04:54:17.975Z,100267.31
2022-08-02T04:56:45.470Z,100270.51
2022-08-02T04:59:12.989Z,100271.55
2022-08-02T05:01:46.432Z,100269.90
2022-08-02T05:04:14.973Z,100274.52
2022-08-02T05:06:42.485Z,100279.27
2022-08-02T05:09:10.090Z,100282.69
2022-08-02T05:11:37.644Z,100284.10
2022-08-02T05:14:05.900Z,100288.06
2022-08-02T05:16:33.973Z,100288.90
2022-08-02T05:19:02.186Z,100296.54
2022-08-02T05:21:31.519Z,100298.27
2022-08-02T05:23:59.085Z,100302.56
2022-08-02T05:26:26.643Z,100299.98
2022-08-02T05:28:54.122Z,100297.44
2022-08-02T05:31:22.375Z,100294.95
2022-08-02T05:33:49.879Z,100299.07
2022-08-02T05:36:17.536Z,100305.23
2022-08-02T05:38:49.637Z,100307.73
2022-08-02T05:41:19.601Z,100308.55
2022-08-02T05:43:47.798Z,100314.23
2022-08-02T05:46:15.319Z,100315.06
2022-08-02T05:48:45.229Z,100311.43
2022-08-02T05:51:22.496Z,100313.61
2022-08-02T05:53:51.456Z,100315.31
2022-08-02T05:56:25.290Z,100316.22
2022-08-02T05:59:05.326Z,100321.20
2022-08-02T06:01:39.888Z,100322.16
2022-08-02T06:04:09.853Z,100322.71
2022-08-02T06:06:44.494Z,100330.09
2022-08-02T06:09:23.237Z,100332.54
2022-08-02T06:12:01.293Z,100331.77
2022-08-02T06:14:37.850Z,100336.91
2022-08-02T06:17:05.802Z,100337.20
2022-08-02T06:19:36.629Z,100337.91
2022-08-02T06:22:42.132Z,100342.45
2022-08-02T06:25:11.623Z,100344.09
2022-08-02T06:27:59.472Z,100349.76
2022-08-02T06:30:28.289Z,100353.41
2022-08-02T06:32:56.410Z,100356.88
2022-08-02T06:35:46.309Z,100360.92
2022-08-02T06:38:21.643Z,100366.36
2022-08-02T06:41:12.247Z,100370.83
2022-08-02T06:43:55.854Z,100368.72
2022-08-02T06:47:08.354Z,100369.95
2022-08-02T06:49:10.974Z,100364.77
2022-08-02T06:51:38.532Z,100369.92
2022-08-02T06:54:06.115Z,100366.77
2022-08-02T06:56:34.331Z,100368.61
2022-08-02T06:59:05.801Z,100371.62
2022-08-02T07:01:39.060Z,100369.14
2022-08-02T07:04:07.210Z,100363.90
2022-08-02T07:06:34.709Z,100364.50
2022-08-02T07:09:19.846Z,100367.23
2022-08-02T07:11:48.501Z,100370.39
2022-08-02T07:14:15.980Z,100370.88
2022-08-02T07:16:43.465Z,100372.55
2022-08-02T07:19:10.988Z,100374.52
2022-08-02T07:21:56.523Z,100376.96
2022-08-02T07:24:25.947Z,100382.29
2022-08-02T07:27:10.805Z,100381.71
2022-08-02T07:29:46.262Z,100383.89
2022-08-02T07:32:19.846Z,100386.40
2022-08-02T07:34:52.661Z,100391.84
2022-08-02T07:37:35.896Z,100392.67
2022-08-02T07:40:13.894Z,100390.25
2022-08-02T07:42:43.757Z,100389.17
2022-08-02T07:45:13.302Z,100387.80
2022-08-02T07:47:43.015Z,100389.08
2022-08-02T07:50:12.482Z,100389.13
2022-08-02T07:52:41.275Z,100389.62
2022-08-02T07:55:10.087Z,100394.46
2022-08-02T07:57:42.657Z,100399.41
2022-08-02T08:00:16.343Z,100395.80
2022-08-02T08:02:44.933Z,100394.55
2022-08-02T08:05:13.122Z,100394.73
2022-08-02T08:07:40.611Z,100394.11
2022-08-02T08:10:08.771Z,100395.65
2022-08-02T08:12:36.261Z,100392.08
2022-08-02T08:15:04.903Z,100388.74
2022-08-02T08:17:32.556Z,100387.71
2022-08-02T08:20:01.594Z,100394.02
2022-08-02T08:22:29.113Z,100397.38
2022-08-02T08:24:56.628Z,100390.68
2022-08-02T08:27:24.277Z,100394.16
2022-08-02T08:29:51.811Z,100394.24
2022-08-02T08:32:19.894Z,100395.55
2022-08-02T08:34:48.615Z,100396.98
2022-08-02T08:37:16.756Z,100400.09
2022-08-02T08:39:57.514Z,100402.58
2022-08-02T08:42:27.650Z,100402.73
2022-08-02T08:44:56.435Z,100402.10
2022-08-02T08:47:35.519Z,100390.89
2022-08-02T08:50:14.822Z,100393.66
2022-08-02T08:52:53.540Z,100394.94
2022-08-02T08:55:24.749Z,100393.15
2022-08-02T08:57:54.722Z,100391.88
2022-08-02T09:00:22.328Z,100394.38
2022-08-02T09:02:50.293Z,100396.51
2022-08-02T09:05:17.967Z,100395.23
2022-08-02T09:07:50.915Z,100394.95
2022-08-02T09:10:43.028Z,100402.63
2022-08-02T09:16:12.674Z,100399.61
2022-08-02T09:18:56.509Z,100394.64
2022-08-02T09:21:25.316Z,100398.11
2022-08-02T09:23:52.962Z,100396.19
2022-08-02T09:26:22.901Z,100396.66
2022-08-02T09:31:51.508Z,100380.52
2022-08-02T09:34:19.878Z,100379.02
2022-08-02T09:36:48.376Z,100380.45
2022-08-02T09:39:29.445Z,100379.79
2022-08-02T09:42:10.586Z,100381.77
2022-08-02T09:44:38.937Z,100380.16
2022-08-02T09:47:23.282Z,100383.64
2022-08-02T09:49:52.538Z,100383.02
2022-08-02T09:52:43.079Z,100378.95
2022-08-02T09:55:11.921Z,100381.41
2022-08-02T09:57:39.924Z,100381.71
2022-08-02T10:00:15.036Z,100383.01
2022-08-02T10:03:22.134Z,100376.72
2022-08-02T10:06:02.345Z,100371.89
2022-08-02T10:08:35.066Z,100369.92
2022-08-02T10:11:05.270Z,100367.98
2022-08-02T10:13:35.672Z,100371.05
2022-08-02T10:16:06.411Z,100367.19
2022-08-02T10:18:39.990Z,100374.59
2022-08-02T10:21:32.209Z,100375.02
2022-08-02T10:24:10.611Z,100371.95
2022-08-02T10:26:40.613Z,100368.90
2022-08-02T10:29:09.723Z,100369.75
2022-08-02T10:31:44.393Z,100369.77
2022-08-02T10:34:16.974Z,100369.06
2022-08-02T10:36:46.877Z,100363.05
2022-08-02T10:39:14.664Z,100365.33
2022-08-02T10:41:49.090Z,100370.23
2022-08-02T10:44:35.332Z,100364.92
2022-08-02T10:47:18.775Z,100365.86
2022-08-02T10:49:57.176Z,100361.98
2022-08-02T10:52:28.822Z,100367.04
2022-08-02T10:55:00.287Z,100369.21
2022-08-02T10:57:30.389Z,100364.98
2022-08-02T11:00:00.884Z,100364.55
2022-08-02T11:02:53.372Z,100363.85
2022-08-02T11:05:43.150Z,100366.59
2022-08-02T11:08:20.771Z,100365.59
2022-08-02T11:10:48.405Z,100361.45
2022-08-02T11:13:22.275Z,100364.39
2022-08-02T11:16:01.785Z,100366.86
2022-08-02T11:18:52.279Z,100371.52
2022-08-02T11:21:28.259Z,100364.68
2022-08-02T11:24:17.607Z,100365.41
2022-08-02T11:26:45.712Z,100363.23
2022-08-02T11:29:15.768Z,100365.61
2022-08-02T11:31:45.573Z,100367.94
2022-08-02T11:34:36.736Z,100359.77
2022-08-02T11:37:02.127Z,100361.35
2022-08-02T11:39:29.710Z,100356.00
2022-08-02T11:41:59.922Z,100358.82
2022-08-02T11:44:30.094Z,100356.79
2022-08-02T11:47:03.028Z,100356.00
2022-08-02T11:49:34.027Z,100354.80
2022-08-02T11:52:06.355Z,100357.64
2022-08-02T11:54:40.126Z,100363.14
2022-08-02T11:57:23.633Z,100360.85
2022-08-02T11:59:56.586Z,100366.41
2022-08-02T12:02:29.690Z,100362.43
2022-08-02T12:05:08.974Z,100361.56
2022-08-02T12:07:45.548Z,100360.33
2022-08-02T12:10:18.890Z,100358.22
2022-08-02T12:12:56.207Z,100355.31
2022-08-02T12:15:45.161Z,100354.26
2022-08-02T12:18:31.438Z,100342.92
2022-08-02T12:20:59.919Z,100343.23
2022-08-02T12:23:28.654Z,100344.92
2022-08-02T12:26:16.293Z,100344.55
2022-08-02T12:28:44.341Z,100340.70
2022-08-02T12:31:18.344Z,100347.79
2022-08-02T12:33:51.727Z,100347.65
2022-08-02T12:36:24.120Z,100349.72
2022-08-02T12:38:52.556Z,100351.73
2022-08-02T12:41:30.861Z,100352.42
2022-08-02T12:44:00.403Z,100351.45
2022-08-02T12:46:28.108Z,100346.35
2022-08-02T12:49:17.407Z,100347.25
2022-08-02T12:51:51.325Z,100356.53
2022-08-02T12:54:39.448Z,100356.15
2022-08-02T12:57:14.640Z,100351.55
2022-08-02T12:59:46.360Z,100351.30
2022-08-02T13:02:17.597Z,100351.21
2022-08-02T13:04:49.988Z,100348.27
2022-08-02T13:07:19.564Z,100347.12
2022-08-02T13:09:48.495Z,100343.48
2022-08-02T13:12:16.917Z,100343.89
2022-08-02T13:14:44.733Z,100339.69
2022-08-02T13:17:12.399Z,100341.21
2022-08-02T13:19:40.845Z,100337.28
2022-08-02T13:22:10.721Z,100335.99
2022-08-02T13:24:56.559Z,100339.24
2022-08-02T13:27:26.605Z,100333.64
2022-08-02T13:29:56.179Z,100338.44
2022-08-02T13:32:25.146Z,100336.83
2022-08-02T13:34:52.628Z,100333.09
2022-08-02T13:37:20.934Z,100327.81
2022-08-02T13:40:11.860Z,100329.87
2022-08-02T13:42:36.280Z,100324.52
2022-08-02T13:45:13.308Z,100322.66
2022-08-02T13:48:04.697Z,100325.04
2022-08-02T13:50:32.009Z,100322.62
2022-08-02T13:52:59.611Z,100321.82
2022-08-02T13:55:28.118Z,100327.73
2022-08-02T13:57:56.530Z,100329.59
2022-08-02T14:00:34.335Z,100323.92
2022-08-02T14:03:05.666Z,100324.35
2022-08-02T14:05:47.112Z,100323.80
2022-08-02T14:08:18.935Z,100319.27
2022-08-02T14:10:48.237Z,100316.82
2022-08-02T14:13:17.007Z,100310.85
2022-08-02T14:15:44.688Z,100312.86
2022-08-02T14:18:14.298Z,100318.83
2022-08-02T14:20:44.131Z,100314.00
2022-08-02T14:23:11.914Z,100311.12
2022-08-02T14:25:39.480Z,100305.06
2022-08-02T14:28:06.987Z,100304.90
2022-08-02T14:30:34.787Z,100309.83
2022-08-02T14:33:04.436Z,100310.31
2022-08-02T14:35:31.918Z,100314.87
2022-08-02T14:37:59.749Z,100314.17
2022-08-02T14:40:30.748Z,100319.50
2022-08-02T14:43:00.778Z,100315.87
2022-08-02T14:45:40.316Z,100314.39
2022-08-02T14:48:11.935Z,100320.02
2022-08-02T14:50:39.723Z,100315.19
2022-08-02T14:53:12.027Z,100307.55
2022-08-02T14:55:40.173Z,100304.95
2022-08-02T14:58:07.706Z,100304.77
2022-08-02T15:00:40.421Z,100302.61
2022-08-02T15:03:10.407Z,100300.95
2022-08-02T15:05:39.269Z,100297.64
2022-08-02T15:08:06.869Z,100295.73
2022-08-02T15:10:34.401Z,100296.46
2022-08-02T15:13:01.891Z,100297.56
2022-08-02T15:15:29.489Z,100294.04
2022-08-02T15:17:57.526Z,100297.21
2022-08-02T15:20:26.362Z,100295.52
2022-08-02T15:22:54.052Z,100294.70
2022-08-02T15:25:22.588Z,100295.34
2022-08-02T15:27:49.991Z,100297.52
2022-08-02T15:30:17.434Z,100295.95
2022-08-02T15:32:52.491Z,100299.52
2022-08-02T15:35:21.834Z,100296.29
2022-08-02T15:37:49.337Z,100294.82
2022-08-02T15:40:16.944Z,100294.00
2022-08-02T15:42:44.514Z,100293.64
2022-08-02T15:45:13.216Z,100294.28
2022-08-02T15:47:48.114Z,100293.07
2022-08-02T15:50:18.675Z,100294.09
2022-08-02T15:52:46.498Z,100289.56
2022-08-02T15:55:14.236Z,100291.58
2022-08-02T15:57:41.755Z,100293.45
2022-08-02T16:00:15.761Z,100298.00
2022-08-02T16:02:46.800Z,100297.13
2022-08-02T16:05:18.043Z,100293.40
2022-08-02T16:07:46.501Z,100290.92
2022-08-02T16:10:15.826Z,100291.41
2022-08-02T16:12:43.955Z,100294.84
2022-08-02T16:15:12.567Z,100293.45
2022-08-02T16:17:49.020Z,100293.61
2022-08-02T16:20:22.618Z,100287.58
2022-08-02T16:22:50.257Z,100292.39
2022-08-02T16:25:17.808Z,100289.35
2022-08-02T16:28:07.459Z,100284.48
2022-08-02T16:30:33.114Z,100288.90
2022-08-02T16:33:00.702Z,100290.30
2022-08-02T16:35:28.408Z,100286.98
2022-08-02T16:37:56.379Z,100290.08
2022-08-02T16:40:24.016Z,100288.92
2022-08-02T16:42:51.555Z,100283.13
2022-08-02T16:48:07.776Z,100288.04
2022-08-02T16:50:37.512Z,100288.44
2022-08-02T16:53:07.159Z,100292.39
2022-08-02T16:55:35.301Z,100296.44
2022-08-02T16:58:02.948Z,100296.05
2022-08-02T17:00:30.966Z,100300.46
2022-08-02T17:03:13.081Z,100302.63
2022-08-02T17:05:56.712Z,100300.33
2022-08-02T17:08:31.466Z,100302.42
2022-08-02T17:11:03.682Z,100299.95
2022-08-02T17:13:34.468Z,100300.02
2022-08-02T17:16:26.345Z,100300.38
2022-08-02T17:18:57.922Z,100301.90
2022-08-02T17:21:27.061Z,100307.67
2022-08-02T17:24:05.134Z,100309.54
2022-08-02T17:26:36.432Z,100304.89
2022-08-02T17:29:15.638Z,100309.55
2022-08-02T17:32:05.816Z,100311.78
2022-08-02T17:34:36.305Z,100308.02
2022-08-02T17:37:05.515Z,100311.30
2022-08-02T17:39:43.886Z,100307.12
2022-08-02T17:42:23.389Z,100303.16
2022-08-02T17:44:53.655Z,100295.50
2022-08-02T17:47:22.463Z,100301.58
2022-08-02T17:49:52.811Z,100304.41
2022-08-02T17:52:52.225Z,100307.11
2022-08-02T17:55:12.786Z,100310.43
2022-08-02T17:57:56.023Z,100310.45
2022-08-02T18:00:35.006Z,100315.09
2022-08-02T18:03:06.161Z,100315.46
2022-08-02T18:05:39.906Z,100318.66
2022-08-02T18:08:09.460Z,100321.77
2022-08-02T18:10:39.503Z,100325.88
2022-08-02T18:13:06.991Z,100326.68
2022-08-02T18:15:35.324Z,100330.25
2022-08-02T18:18:03.539Z,100334.63
2022-08-02T18:20:31.753Z,100327.23
2022-08-02T18:22:59.249Z,100331.09
2022-08-02T18:25:37.342Z,100332.95
2022-08-02T18:28:13.496Z,100336.86
2022-08-02T18:30:41.033Z,100340.77
2022-08-02T18:33:55.137Z,100339.61
2022-08-02T18:35:56.117Z,100343.98
2022-08-02T18:38:27.924Z,100346.31
2022-08-02T18:40:55.548Z,100348.64
2022-08-02T18:43:25.327Z,100353.99
2022-08-02T18:46:15.606Z,100357.89
2022-08-02T18:48:46.485Z,100361.02
2022-08-02T18:51:16.135Z,100359.66
2022-08-02T18:53:55.853Z,100367.55
2022-08-02T18:56:24.251Z,100371.62
2022-08-02T18:58:54.533Z,100373.95
2022-08-02T19:01:32.594Z,100371.52
2022-08-02T19:04:04.620Z,100373.30
2022-08-02T19:06:32.596Z,100375.29
2022-08-02T19:09:11.553Z,100378.70
2022-08-02T19:11:48.234Z,100378.05
2022-08-02T19:14:27.213Z,100377.05
2022-08-02T19:17:00.331Z,100381.03
2022-08-02T19:19:44.192Z,100383.25
2022-08-02T19:22:17.910Z,100387.23
2022-08-02T19:24:50.301Z,100386.58
2022-08-02T19:27:26.016Z,100389.94
2022-08-02T19:29:54.140Z,100387.02
2022-08-02T19:32:41.854Z,100384.70
2022-08-02T19:35:15.262Z,100382.89
2022-08-02T19:38:09.657Z,100382.89
2022-08-02T19:40:43.354Z,100383.60
2022-08-02T19:44:25.848Z,100385.69
2022-08-02T19:46:00.112Z,100383.16
2022-08-02T19:48:28.312Z,100380.38
2022-08-02T19:51:01.221Z,100379.31
2022-08-02T19:53:48.049Z,100379.64
2022-08-02T19:56:25.347Z,100379.85
2022-08-02T19:58:57.802Z,100378.85
2022-08-02T20:01:36.599Z,100380.21
2022-08-02T20:04:13.725Z,100382.83
2022-08-02T20:06:46.062Z,100380.84
2022-08-02T20:09:22.243Z,100378.45
2022-08-02T20:11:54.488Z,100379.38
2022-08-02T20:17:12.259Z,100386.23
2022-08-02T20:19:40.773Z,100383.70
2022-08-02T20:22:09.019Z,100383.38
2022-08-02T20:24:36.600Z,100387.83
2022-08-02T20:27:04.672Z,100389.31
2022-08-02T20:29:44.932Z,100385.94
2022-08-02T20:32:23.869Z,100387.98
2022-08-02T20:34:52.391Z,100386.52
2022-08-02T20:40:17.181Z,100384.52
2022-08-02T20:42:47.754Z,100385.84
2022-08-02T20:45:19.736Z,100384.25
2022-08-02T20:47:50.690Z,100379.42
2022-08-02T20:50:35.897Z,100378.26
2022-08-02T20:53:04.842Z,100380.08
2022-08-02T20:55:41.345Z,100377.48
2022-08-02T20:58:11.902Z,100377.54
2022-08-02T21:00:40.399Z,100378.58
2022-08-02T21:03:14.304Z,100377.89
2022-08-02T21:05:55.023Z,100378.86
2022-08-02T21:08:24.244Z,100376.63
2022-08-02T21:13:46.492Z,100377.77
2022-08-02T21:19:03.326Z,100381.34
2022-08-02T21:21:37.844Z,100380.04
2022-08-02T21:24:05.592Z,100380.63
2022-08-02T21:26:33.140Z,100380.48
2022-08-02T21:29:04.484Z,100383.73
2022-08-02T21:31:35.744Z,100382.61
2022-08-02T21:34:21.586Z,100382.83
2022-08-02T21:36:53.633Z,100381.94
2022-08-02T21:39:21.165Z,100387.61
2022-08-02T21:41:49.323Z,100393.70
2022-08-02T21:44:22.032Z,100396.65
2022-08-02T21:46:56.768Z,100398.56
2022-08-02T21:49:41.235Z,100397.05
2022-08-02T21:52:14.233Z,100403.61
2022-08-02T21:54:45.134Z,100408.74
2022-08-02T21:57:15.695Z,100412.25
2022-08-02T21:59:55.825Z,100413.99
2022-08-02T22:02:30.917Z,100417.61
2022-08-02T22:04:59.713Z,100415.45
2022-08-02T22:07:30.264Z,100418.85
2022-08-02T22:10:13.382Z,100417.88
2022-08-02T22:12:43.294Z,100415.55
2022-08-02T22:15:12.508Z,100421.01
2022-08-02T22:20:29.445Z,100426.69
2022-08-02T22:22:57.000Z,100422.89
2022-08-02T22:25:36.030Z,100425.48
2022-08-02T22:28:39.446Z,100426.95
2022-08-02T22:31:05.219Z,100426.52
2022-08-02T22:39:29.457Z,100433.09
2022-08-02T22:42:05.590Z,100433.05
2022-08-02T22:44:44.295Z,100439.02
2022-08-02T22:47:14.468Z,100442.19
2022-08-02T22:49:54.496Z,100442.17
2022-08-02T22:52:23.853Z,100445.48
2022-08-02T22:54:51.663Z,100444.99
2022-08-02T22:57:30.898Z,100447.67
2022-08-02T22:58:50.424Z,100284.52
2022-08-02T22:58:54.954Z,100383.77
2022-08-02T22:59:05.142Z,100429.25
2022-08-02T22:59:07.447Z,100385.58
2022-08-02T22:59:10.630Z,100375.58
2022-08-02T22:59:11.086Z,100375.55
2022-08-02T22:59:12.997Z,100420.56
2022-08-02T23:00:09.345Z,100447.77
2022-08-02T23:02:37.870Z,100446.61
2022-08-02T23:05:06.084Z,100446.21
2022-08-02T23:07:38.714Z,100445.88
2022-08-02T23:10:07.955Z,100448.30
2022-08-02T23:12:35.611Z,100448.98
2022-08-02T23:15:03.399Z,100443.15
2022-08-02T23:17:48.018Z,100438.91
2022-08-02T23:20:15.645Z,100438.79
2022-08-02T23:22:43.145Z,100434.94
2022-08-02T23:25:10.698Z,100435.73
2022-08-02T23:27:38.298Z,100432.64
2022-08-02T23:30:06.747Z,100430.45
2022-08-02T23:32:34.260Z,100429.42
2022-08-02T23:35:02.135Z,100425.09
2022-08-02T23:37:57.813Z,100426.70
2022-08-02T23:40:39.882Z,100424.38
2022-08-02T23:43:13.966Z,100426.32
2022-08-02T23:45:44.924Z,100423.48
2022-08-02T23:48:12.432Z,100424.23
2022-08-02T23:50:39.936Z,100425.19
2022-08-02T23:53:07.420Z,100425.73
2022-08-02T23:55:34.930Z,100423.23
2022-08-02T23:58:02.430Z,100422.59
